createdAt,value
2019-03-24T00:02:10.383Z,99948.09
2019-03-24T00:04:37.458Z,99951.81
2019-03-24T00:07:04.579Z,99951.49
2019-03-24T00:09:31.546Z,99941.09
2019-03-24T00:11:58.539Z,99947.91
2019-03-24T00:14:25.414Z,99943.41
2019-03-24T00:16:52.227Z,99944.28
2019-03-24T00:19:19.043Z,99936.35
2019-03-24T00:21:46.168Z,99934.13
2019-03-24T00:24:13.152Z,99940.29
2019-03-24T00:26:40.206Z,99935.19
2019-03-24T00:29:07.087Z,99929.48
2019-03-24T00:31:34.107Z,99930.13
2019-03-24T00:34:01.033Z,99927.26
2019-03-24T00:36:27.909Z,99928.08
2019-03-24T00:38:54.787Z,99930.30
2019-03-24T00:41:21.609Z,99919.88
2019-03-24T00:43:48.511Z,99920.88
2019-03-24T00:46:15.374Z,99917.41
2019-03-24T00:48:42.303Z,99914.75
2019-03-24T00:51:09.240Z,99916.80
2019-03-24T00:53:36.117Z,99915.98
2019-03-24T00:56:03.024Z,99921.69
2019-03-24T00:58:30.335Z,99915.95
2019-03-24T01:00:57.236Z,99910.81
2019-03-24T01:03:24.037Z,99909.99
2019-03-24T01:05:50.867Z,99908.92
2019-03-24T01:08:17.687Z,99916.52
2019-03-24T01:10:44.609Z,99940.63
2019-03-24T01:13:12.207Z,99939.39
2019-03-24T01:15:47.345Z,99921.83
2019-03-24T01:18:08.175Z,99936.52
2019-03-24T01:20:34.920Z,99910.34
2019-03-24T01:23:01.757Z,99909.09
2019-03-24T01:25:29.440Z,99898.38
2019-03-24T01:27:56.297Z,99874.22
2019-03-24T01:30:23.485Z,99899.14
2019-03-24T01:32:50.433Z,99899.14
2019-03-24T01:35:17.359Z,99911.40
2019-03-24T01:37:44.275Z,99911.83
2019-03-24T01:40:11.157Z,99924.12
2019-03-24T01:42:38.087Z,99934.15
2019-03-24T01:45:08.093Z,99935.78
2019-03-24T01:47:35.064Z,99941.35
2019-03-24T01:50:04.051Z,99935.22
2019-03-24T01:52:30.870Z,99933.56
2019-03-24T01:54:57.743Z,99939.30
2019-03-24T01:57:24.871Z,99933.38
2019-03-24T01:59:51.759Z,99932.74
2019-03-24T02:02:18.991Z,99936.04
2019-03-24T02:04:46.013Z,99927.43
2019-03-24T02:07:12.877Z,99941.30
2019-03-24T02:09:39.773Z,99940.48
2019-03-24T02:12:06.669Z,99943.75
2019-03-24T02:14:33.653Z,99949.88
2019-03-24T02:17:00.653Z,99953.99
2019-03-24T02:19:27.495Z,99966.45
2019-03-24T02:21:54.467Z,99960.70
2019-03-24T02:24:21.314Z,99970.74
2019-03-24T02:26:48.388Z,99969.55
2019-03-24T02:29:15.345Z,99974.04
2019-03-24T02:31:42.298Z,99981.36
2019-03-24T02:34:09.200Z,99983.41
2019-03-24T02:36:36.230Z,99996.05
2019-03-24T02:39:06.352Z,99988.08
2019-03-24T02:41:33.122Z,99998.91
2019-03-24T02:44:00.027Z,100001.19
2019-03-24T02:46:26.959Z,100007.49
2019-03-24T02:48:53.895Z,100014.41
2019-03-24T02:51:20.812Z,100009.27
2019-03-24T02:53:47.703Z,100009.27
2019-03-24T02:56:14.583Z,100014.96
2019-03-24T02:58:41.494Z,100014.34
2019-03-24T03:01:08.837Z,100017.61
2019-03-24T03:03:35.727Z,100019.28
2019-03-24T03:06:02.672Z,100014.20
2019-03-24T03:08:29.666Z,100013.59
2019-03-24T03:10:56.556Z,100011.55
2019-03-24T03:13:23.514Z,100024.22
2019-03-24T03:15:50.369Z,100029.53
2019-03-24T03:18:19.061Z,100035.45
2019-03-24T03:20:45.821Z,100027.05
2019-03-24T03:23:12.711Z,100031.54
2019-03-24T03:25:41.930Z,100038.25
2019-03-24T03:28:09.046Z,100040.53
2019-03-24T03:30:35.920Z,100038.48
2019-03-24T03:33:02.960Z,100041.34
2019-03-24T03:35:29.938Z,100048.12
2019-03-24T03:37:58.281Z,100053.43
2019-03-24T03:40:25.365Z,100058.53
2019-03-24T03:42:52.196Z,100058.73
2019-03-24T03:45:26.786Z,100062.97
2019-03-24T03:47:54.415Z,100073.08
2019-03-24T03:50:21.451Z,100072.43
2019-03-24T03:52:48.445Z,100073.45
2019-03-24T03:55:15.552Z,100081.59
2019-03-24T03:57:42.646Z,100074.64
2019-03-24T04:00:09.535Z,100084.23
2019-03-24T04:02:36.633Z,100082.23
2019-03-24T04:05:04.954Z,100095.51
2019-03-24T04:07:31.793Z,100091.83
2019-03-24T04:09:58.632Z,100084.07
2019-03-24T04:12:25.710Z,100086.52
2019-03-24T04:14:52.578Z,100090.84
2019-03-24T04:17:19.495Z,100084.52
2019-03-24T04:19:46.388Z,100079.20
2019-03-24T04:22:13.237Z,100082.67
2019-03-24T04:24:40.197Z,100087.34
2019-03-24T04:27:07.024Z,100084.69
2019-03-24T04:29:34.228Z,100092.20
2019-03-24T04:32:01.026Z,100084.00
2019-03-24T04:34:28.260Z,100083.11
2019-03-24T04:36:55.063Z,100085.56
2019-03-24T04:39:21.962Z,100093.97
2019-03-24T04:41:49.179Z,100092.98
2019-03-24T04:44:16.084Z,100097.64
2019-03-24T04:46:42.982Z,100098.30
2019-03-24T04:49:09.930Z,100103.70
2019-03-24T04:51:36.753Z,100114.88
2019-03-24T04:54:03.638Z,100107.09
2019-03-24T04:56:30.743Z,100116.72
2019-03-24T04:58:57.470Z,100117.70
2019-03-24T05:01:24.396Z,100115.05
2019-03-24T05:03:51.282Z,100121.00
2019-03-24T05:06:18.136Z,100111.86
2019-03-24T05:08:45.466Z,100109.20
2019-03-24T05:11:12.483Z,100110.02
2019-03-24T05:13:39.320Z,100110.39
2019-03-24T05:16:06.179Z,100121.49
2019-03-24T05:18:33.058Z,100124.97
2019-03-24T05:21:00.034Z,100121.16
2019-03-24T05:23:26.933Z,100126.16
2019-03-24T05:25:53.794Z,100136.41
2019-03-24T05:28:20.649Z,100133.47
2019-03-24T05:30:47.788Z,100143.43
2019-03-24T05:33:14.754Z,100139.50
2019-03-24T05:35:41.649Z,100138.48
2019-03-24T05:38:08.491Z,100138.78
2019-03-24T05:40:35.674Z,100133.67
2019-03-24T05:43:02.646Z,100145.09
2019-03-24T05:45:29.657Z,100147.16
2019-03-24T05:47:56.496Z,100150.02
2019-03-24T05:50:24.754Z,100146.61
2019-03-24T05:52:51.701Z,100149.52
2019-03-24T05:55:18.672Z,100151.19
2019-03-24T05:57:45.561Z,100151.70
2019-03-24T06:00:12.412Z,100153.24
2019-03-24T06:02:39.617Z,100149.61
2019-03-24T06:05:06.622Z,100151.70
2019-03-24T06:07:33.512Z,100153.70
2019-03-24T06:10:00.982Z,100150.99
2019-03-24T06:12:27.750Z,100158.84
2019-03-24T06:14:54.636Z,100152.92
2019-03-24T06:17:21.579Z,100152.27
2019-03-24T06:19:48.562Z,100153.28
2019-03-24T06:22:15.341Z,100146.77
2019-03-24T06:24:42.206Z,100148.05
2019-03-24T06:27:09.085Z,100158.08
2019-03-24T06:29:36.063Z,100150.32
2019-03-24T06:32:02.949Z,100153.08
2019-03-24T06:34:29.865Z,100157.17
2019-03-24T06:36:56.974Z,100162.77
2019-03-24T06:39:23.831Z,100155.64
2019-03-24T06:41:50.853Z,100157.93
2019-03-24T06:44:17.968Z,100167.16
2019-03-24T06:46:44.799Z,100158.65
2019-03-24T06:49:11.712Z,100158.29
2019-03-24T06:51:38.717Z,100149.98
2019-03-24T06:54:05.669Z,100154.16
2019-03-24T06:56:32.517Z,100154.92
2019-03-24T06:58:59.871Z,100151.09
2019-03-24T07:01:26.758Z,100155.94
2019-03-24T07:03:53.711Z,100146.31
2019-03-24T07:06:20.657Z,100155.67
2019-03-24T07:08:47.537Z,100151.91
2019-03-24T07:11:14.247Z,100149.16
2019-03-24T07:13:41.339Z,100155.12
2019-03-24T07:16:08.226Z,100160.13
2019-03-24T07:18:35.104Z,100152.11
2019-03-24T07:21:01.984Z,100155.69
2019-03-24T07:23:29.004Z,100153.53
2019-03-24T07:25:55.823Z,100157.09
2019-03-24T07:28:24.890Z,100149.30
2019-03-24T07:30:51.835Z,100148.11
2019-03-24T07:33:18.794Z,100143.71
2019-03-24T07:35:45.763Z,100140.69
2019-03-24T07:38:12.869Z,100140.97
2019-03-24T07:40:40.027Z,100135.83
2019-03-24T07:43:06.991Z,100139.30
2019-03-24T07:45:33.987Z,100137.67
2019-03-24T07:48:00.868Z,100144.70
2019-03-24T07:50:28.862Z,100145.14
2019-03-24T07:52:55.611Z,100139.47
2019-03-24T07:55:22.420Z,100138.48
2019-03-24T07:57:49.283Z,100133.42
2019-03-24T08:00:30.890Z,100138.36
2019-03-24T08:02:57.823Z,100132.23
2019-03-24T08:05:24.763Z,100130.52
2019-03-24T08:07:51.784Z,100133.91
2019-03-24T08:10:18.728Z,100132.16
2019-03-24T08:12:45.883Z,100131.41
2019-03-24T08:15:12.798Z,100129.75
2019-03-24T08:17:39.785Z,100124.91
2019-03-24T08:20:06.761Z,100125.36
2019-03-24T08:22:33.749Z,100117.39
2019-03-24T08:25:00.612Z,100112.33
2019-03-24T08:27:27.640Z,100119.82
2019-03-24T08:29:55.436Z,100111.07
2019-03-24T08:32:22.317Z,100103.38
2019-03-24T08:34:49.144Z,100107.73
2019-03-24T08:37:16.071Z,100108.17
2019-03-24T08:39:43.030Z,100102.75
2019-03-24T08:42:10.176Z,100105.02
2019-03-24T08:44:37.059Z,100106.89
2019-03-24T08:47:04.060Z,100096.09
2019-03-24T08:49:31.035Z,100095.89
2019-03-24T08:51:57.941Z,100094.13
2019-03-24T08:54:24.870Z,100104.35
2019-03-24T08:56:51.846Z,100096.08
2019-03-24T08:59:18.748Z,100095.95
2019-03-24T09:01:45.578Z,100091.94
2019-03-24T09:04:12.651Z,100079.33
2019-03-24T09:06:39.718Z,100082.63
2019-03-24T09:09:07.058Z,100077.31
2019-03-24T09:11:34.042Z,100079.45
2019-03-24T09:14:00.936Z,100069.66
2019-03-24T09:16:28.236Z,100071.75
2019-03-24T09:18:55.064Z,100069.37
2019-03-24T09:21:21.945Z,100065.31
2019-03-24T09:23:49.188Z,100061.27
2019-03-24T09:26:16.241Z,100055.97
2019-03-24T09:28:43.212Z,100053.59
2019-03-24T09:31:10.384Z,100058.95
2019-03-24T09:33:37.296Z,100050.75
2019-03-24T09:36:04.096Z,100055.91
2019-03-24T09:38:31.408Z,100057.55
2019-03-24T09:40:58.812Z,100055.08
2019-03-24T09:43:25.650Z,100054.89
2019-03-24T09:45:52.660Z,100056.52
2019-03-24T09:48:19.694Z,100048.73
2019-03-24T09:50:46.685Z,100051.17
2019-03-24T09:53:13.556Z,100049.31
2019-03-24T09:55:40.639Z,100041.70
2019-03-24T09:58:07.535Z,100036.39
2019-03-24T10:00:34.468Z,100024.84
2019-03-24T10:03:01.526Z,100027.26
2019-03-24T10:05:28.413Z,100017.89
2019-03-24T10:07:55.240Z,100016.00
2019-03-24T10:10:22.258Z,100008.34
2019-03-24T10:12:49.060Z,100013.45
2019-03-24T10:15:16.033Z,100013.80
2019-03-24T10:17:43.964Z,100021.19
2019-03-24T10:20:11.098Z,100008.83
2019-03-24T10:22:38.718Z,100016.60
2019-03-24T10:25:05.977Z,100008.69
2019-03-24T10:27:32.936Z,100002.05
2019-03-24T10:29:59.772Z,99997.78
2019-03-24T10:32:26.699Z,100001.00
2019-03-24T10:34:54.495Z,100000.82
2019-03-24T10:37:21.336Z,99993.03
2019-03-24T10:39:48.316Z,99985.19
2019-03-24T10:42:15.164Z,99973.27
2019-03-24T10:44:42.072Z,99966.56
2019-03-24T10:47:08.876Z,99967.90
2019-03-24T10:49:35.879Z,99966.22
2019-03-24T10:52:02.918Z,99971.45
2019-03-24T10:54:29.979Z,99965.77
2019-03-24T10:56:56.810Z,99961.70
2019-03-24T10:59:23.817Z,99960.25
2019-03-24T11:01:50.677Z,99959.71
2019-03-24T11:04:17.502Z,99948.11
2019-03-24T11:06:44.382Z,99950.79
2019-03-24T11:09:11.216Z,99938.55
2019-03-24T11:11:38.176Z,99936.29
2019-03-24T11:14:05.103Z,99928.84
2019-03-24T11:16:31.944Z,99930.75
2019-03-24T11:18:58.951Z,99924.64
2019-03-24T11:21:25.804Z,99923.48
2019-03-24T11:23:52.882Z,99914.41
2019-03-24T11:26:19.762Z,99913.88
2019-03-24T11:28:46.674Z,99906.30
2019-03-24T11:31:13.494Z,99901.33
2019-03-24T11:33:40.478Z,99897.47
2019-03-24T11:36:07.743Z,99898.43
2019-03-24T11:38:35.623Z,99884.80
2019-03-24T11:41:02.627Z,99879.52
2019-03-24T11:43:29.456Z,99879.10
2019-03-24T11:45:56.513Z,99875.36
2019-03-24T11:48:23.388Z,99874.73
2019-03-24T11:50:50.445Z,99866.92
2019-03-24T11:53:17.335Z,99859.69
2019-03-24T11:55:44.278Z,99858.02
2019-03-24T11:58:12.629Z,99845.51
2019-03-24T12:00:39.749Z,99838.22
2019-03-24T12:03:06.680Z,99830.77
2019-03-24T12:05:33.603Z,99835.23
2019-03-24T12:08:01.341Z,99823.93
2019-03-24T12:10:28.388Z,99822.41
2019-03-24T12:12:55.338Z,99820.44
2019-03-24T12:15:22.219Z,99811.05
2019-03-24T12:17:49.400Z,99800.64
2019-03-24T12:20:16.341Z,99797.20
2019-03-24T12:22:43.238Z,99792.27
2019-03-24T12:25:10.615Z,99787.84
2019-03-24T12:27:37.991Z,99791.16
2019-03-24T12:30:08.234Z,99791.59
2019-03-24T12:32:35.242Z,99782.56
2019-03-24T12:35:05.019Z,99777.20
2019-03-24T12:37:31.953Z,99766.38
2019-03-24T12:39:58.895Z,99757.50
2019-03-24T12:42:25.756Z,99749.67
2019-03-24T12:44:52.634Z,99745.12
2019-03-24T12:47:19.619Z,99729.13
2019-03-24T12:49:46.556Z,99728.41
2019-03-24T12:52:13.415Z,99721.30
2019-03-24T12:54:40.473Z,99712.45
2019-03-24T12:57:07.327Z,99711.85
2019-03-24T12:59:34.262Z,99712.61
2019-03-24T13:02:01.161Z,99707.32
2019-03-24T13:04:27.960Z,99702.39
2019-03-24T13:06:54.845Z,99688.21
2019-03-24T13:09:21.755Z,99681.88
2019-03-24T13:11:48.653Z,99679.50
2019-03-24T13:14:15.468Z,99673.71
2019-03-24T13:16:42.406Z,99675.86
2019-03-24T13:19:09.414Z,99668.27
2019-03-24T13:21:36.271Z,99663.09
2019-03-24T13:24:03.139Z,99671.14
2019-03-24T13:26:29.955Z,99665.91
2019-03-24T13:28:57.165Z,99655.61
2019-03-24T13:31:24.100Z,99647.08
2019-03-24T13:33:51.151Z,99640.45
2019-03-24T13:36:18.047Z,99642.33
2019-03-24T13:38:44.975Z,99643.69
2019-03-24T13:41:12.272Z,99638.00
2019-03-24T13:43:38.970Z,99632.80
2019-03-24T13:46:06.206Z,99631.24
2019-03-24T13:48:33.061Z,99630.44
2019-03-24T13:51:00.103Z,99619.30
2019-03-24T13:53:27.032Z,99624.06
2019-03-24T13:55:53.979Z,99613.34
2019-03-24T13:58:21.053Z,99613.05
2019-03-24T14:00:48.046Z,99601.23
2019-03-24T14:03:14.978Z,99598.37
2019-03-24T14:05:41.828Z,99593.80
2019-03-24T14:08:08.669Z,99599.15
2019-03-24T14:10:35.586Z,99586.16
2019-03-24T14:13:02.490Z,99590.19
2019-03-24T14:15:29.792Z,99584.20
2019-03-24T14:17:56.721Z,99580.95
2019-03-24T14:20:23.598Z,99573.42
2019-03-24T14:22:50.635Z,99574.45
2019-03-24T14:25:17.453Z,99565.23
2019-03-24T14:27:44.397Z,99568.98
2019-03-24T14:30:11.285Z,99563.52
2019-03-24T14:32:38.186Z,99564.38
2019-03-24T14:35:05.124Z,99559.27
2019-03-24T14:37:32.221Z,99555.36
2019-03-24T14:39:59.307Z,99553.15
2019-03-24T14:42:26.116Z,99552.51
2019-03-24T14:44:53.260Z,99534.39
2019-03-24T14:47:20.209Z,99534.48
2019-03-24T14:49:47.145Z,99537.33
2019-03-24T14:52:13.883Z,99532.09
2019-03-24T14:54:40.741Z,99533.25
2019-03-24T14:57:07.537Z,99530.70
2019-03-24T14:59:34.451Z,99522.31
2019-03-24T15:02:01.354Z,99508.59
2019-03-24T15:04:28.249Z,99511.97
2019-03-24T15:06:55.154Z,99510.61
2019-03-24T15:09:22.079Z,99520.58
2019-03-24T15:11:49.133Z,99509.10
2019-03-24T15:14:16.129Z,99509.55
2019-03-24T15:16:42.967Z,99505.35
2019-03-24T15:19:09.905Z,99502.26
2019-03-24T15:21:36.852Z,99505.00
2019-03-24T15:24:03.696Z,99501.75
2019-03-24T15:26:31.477Z,99504.52
2019-03-24T15:28:58.313Z,99507.90
2019-03-24T15:31:25.221Z,99497.97
2019-03-24T15:33:52.092Z,99498.23
2019-03-24T15:36:18.919Z,99495.79
2019-03-24T15:38:45.815Z,99493.06
2019-03-24T15:41:12.763Z,99485.13
2019-03-24T15:43:41.137Z,99490.84
2019-03-24T15:46:08.322Z,99489.59
2019-03-24T15:48:35.312Z,99489.47
2019-03-24T15:51:02.135Z,99486.44
2019-03-24T15:53:29.019Z,99486.86
2019-03-24T15:55:56.062Z,99489.82
2019-03-24T15:58:24.284Z,99489.91
2019-03-24T16:00:51.169Z,99494.38
2019-03-24T16:03:19.669Z,99485.19
2019-03-24T16:05:46.771Z,99489.09
2019-03-24T16:08:13.676Z,99482.14
2019-03-24T16:10:40.566Z,99486.23
2019-03-24T16:13:07.362Z,99487.05
2019-03-24T16:15:34.251Z,99486.05
2019-03-24T16:18:01.491Z,99486.92
2019-03-24T16:20:28.339Z,99489.87
2019-03-24T16:22:55.231Z,99470.23
2019-03-24T16:25:22.097Z,99472.31
2019-03-24T16:27:48.939Z,99459.37
2019-03-24T16:30:15.960Z,99461.52
2019-03-24T16:32:42.812Z,99457.89
2019-03-24T16:35:09.695Z,99458.44
2019-03-24T16:37:36.820Z,99447.60
2019-03-24T16:40:05.384Z,99448.21
2019-03-24T16:42:32.326Z,99452.30
2019-03-24T16:44:59.178Z,99449.88
2019-03-24T16:47:26.224Z,99445.42
2019-03-24T16:49:53.679Z,99450.36
2019-03-24T16:52:20.579Z,99455.16
2019-03-24T16:54:47.424Z,99448.80
2019-03-24T16:57:14.304Z,99436.90
2019-03-24T16:59:41.158Z,99430.81
2019-03-24T17:02:08.532Z,99436.73
2019-03-24T17:04:35.512Z,99435.16
2019-03-24T17:07:02.350Z,99432.30
2019-03-24T17:09:29.558Z,99440.14
2019-03-24T17:11:57.086Z,99442.45
2019-03-24T17:14:23.902Z,99444.07
2019-03-24T17:16:50.999Z,99441.83
2019-03-24T17:19:17.868Z,99449.73
2019-03-24T17:21:50.015Z,99445.47
2019-03-24T17:24:13.524Z,99443.88
2019-03-24T17:26:40.503Z,99443.54
2019-03-24T17:29:07.840Z,99439.40
2019-03-24T17:31:34.711Z,99438.78
2019-03-24T17:34:01.726Z,99435.28
2019-03-24T17:36:28.703Z,99438.92
2019-03-24T17:38:55.577Z,99447.09
2019-03-24T17:41:22.855Z,99444.69
2019-03-24T17:43:49.822Z,99445.75
2019-03-24T17:46:16.861Z,99436.57
2019-03-24T17:48:43.706Z,99431.28
2019-03-24T17:51:10.551Z,99431.49
2019-03-24T17:53:37.312Z,99428.05
2019-03-24T17:56:04.223Z,99422.75
2019-03-24T17:58:31.138Z,99429.31
2019-03-24T18:00:58.104Z,99420.31
2019-03-24T18:03:24.942Z,99418.66
2019-03-24T18:05:51.934Z,99419.52
2019-03-24T18:08:18.761Z,99417.69
2019-03-24T18:10:45.645Z,99424.01
2019-03-24T18:13:12.572Z,99437.91
2019-03-24T18:15:39.436Z,99432.82
2019-03-24T18:18:06.434Z,99419.31
2019-03-24T18:20:34.236Z,99425.45
2019-03-24T18:23:01.156Z,99426.50
2019-03-24T18:25:28.152Z,99410.98
2019-03-24T18:27:55.011Z,99412.20
2019-03-24T18:30:21.813Z,99403.83
2019-03-24T18:32:48.705Z,99405.69
2019-03-24T18:35:15.613Z,99386.92
2019-03-24T18:37:42.532Z,99399.16
2019-03-24T18:40:09.532Z,99402.84
2019-03-24T18:42:36.971Z,99399.75
2019-03-24T18:45:07.098Z,99401.19
2019-03-24T18:47:33.974Z,99389.36
2019-03-24T18:50:00.836Z,99389.36
2019-03-24T18:52:27.718Z,99388.33
2019-03-24T18:54:54.544Z,99385.08
2019-03-24T18:57:21.319Z,99375.05
2019-03-24T18:59:48.178Z,99380.17
2019-03-24T19:02:15.061Z,99394.26
2019-03-24T19:04:41.820Z,99399.16
2019-03-24T19:07:08.604Z,99392.00
2019-03-24T19:09:35.479Z,99397.50
2019-03-24T19:12:02.599Z,99395.26
2019-03-24T19:14:29.984Z,99399.30
2019-03-24T19:16:56.964Z,99401.96
2019-03-24T19:19:23.861Z,99408.13
2019-03-24T19:21:51.284Z,99400.37
2019-03-24T19:24:18.202Z,99389.34
2019-03-24T19:26:44.992Z,99383.23
2019-03-24T19:29:11.736Z,99378.52
2019-03-24T19:31:39.795Z,99380.77
2019-03-24T19:34:06.652Z,99374.24
2019-03-24T19:36:33.536Z,99369.75
2019-03-24T19:39:01.565Z,99362.41
2019-03-24T19:41:30.258Z,99362.41
2019-03-24T19:43:57.580Z,99359.53
2019-03-24T19:46:24.470Z,99360.96
2019-03-24T19:48:51.396Z,99357.50
2019-03-24T19:51:20.817Z,99356.28
2019-03-24T19:53:47.648Z,99349.75
2019-03-24T19:56:14.681Z,99344.22
2019-03-24T19:58:41.561Z,99341.16
2019-03-24T20:01:08.413Z,99338.27
2019-03-24T20:03:35.259Z,99344.42
2019-03-24T20:06:02.528Z,99342.36
2019-03-24T20:08:30.536Z,99340.34
2019-03-24T20:10:57.408Z,99333.38
2019-03-24T20:13:24.483Z,99328.08
2019-03-24T20:15:51.320Z,99325.63
2019-03-24T20:18:18.427Z,99321.13
2019-03-24T20:20:45.301Z,99320.73
2019-03-24T20:23:12.189Z,99315.02
2019-03-24T20:25:39.102Z,99318.08
2019-03-24T20:28:06.061Z,99313.01
2019-03-24T20:30:32.809Z,99318.73
2019-03-24T20:32:59.728Z,99313.83
2019-03-24T20:35:26.548Z,99306.47
2019-03-24T20:37:54.413Z,99304.05
2019-03-24T20:40:21.322Z,99310.38
2019-03-24T20:42:48.350Z,99303.23
2019-03-24T20:45:15.284Z,99294.65
2019-03-24T20:47:42.408Z,99297.52
2019-03-24T20:50:10.172Z,99293.84
2019-03-24T20:52:37.071Z,99284.84
2019-03-24T20:55:05.345Z,99279.14
2019-03-24T20:57:32.174Z,99284.25
2019-03-24T20:59:59.144Z,99279.14
2019-03-24T21:02:25.995Z,99278.73
2019-03-24T21:04:53.187Z,99278.73
2019-03-24T21:07:20.107Z,99273.65
2019-03-24T21:09:47.170Z,99274.64
2019-03-24T21:12:14.255Z,99289.75
2019-03-24T21:14:41.222Z,99288.75
2019-03-24T21:17:10.271Z,99286.09
2019-03-24T21:19:37.197Z,99293.02
2019-03-24T21:22:04.104Z,99289.75
2019-03-24T21:24:30.945Z,99280.34
2019-03-24T21:26:57.747Z,99283.63
2019-03-24T21:29:24.809Z,99284.25
2019-03-24T21:31:51.979Z,99287.90
2019-03-24T21:34:28.185Z,99286.50
2019-03-24T21:37:02.423Z,99275.90
2019-03-24T21:39:33.336Z,99287.72
2019-03-24T21:42:00.180Z,99276.70
2019-03-24T21:44:30.632Z,99270.59
2019-03-24T21:46:57.513Z,99275.23
2019-03-24T21:49:24.639Z,99285.20
2019-03-24T21:51:51.452Z,99288.47
2019-03-24T21:54:18.256Z,99282.47
2019-03-24T21:56:46.156Z,99285.65
2019-03-24T21:59:13.018Z,99280.62
2019-03-24T22:01:39.968Z,99276.91
2019-03-24T22:04:06.866Z,99273.97
2019-03-24T22:06:33.758Z,99271.45
2019-03-24T22:09:08.894Z,99274.69
2019-03-24T22:11:35.804Z,99282.31
2019-03-24T22:14:02.940Z,99290.55
2019-03-24T22:16:30.098Z,99276.03
2019-03-24T22:18:57.148Z,99265.59
2019-03-24T22:21:23.975Z,99266.02
2019-03-24T22:23:52.460Z,99260.41
2019-03-24T22:26:19.607Z,99248.11
2019-03-24T22:28:46.494Z,99244.22
2019-03-24T22:31:13.774Z,99253.34
2019-03-24T22:33:40.669Z,99262.72
2019-03-24T22:36:08.217Z,99258.19
2019-03-24T22:38:35.129Z,99268.44
2019-03-24T22:41:02.067Z,99266.98
2019-03-24T22:43:29.815Z,99274.86
2019-03-24T22:45:56.736Z,99259.81
2019-03-24T22:48:23.599Z,99251.25
2019-03-24T22:50:50.435Z,99254.96
2019-03-24T22:53:17.356Z,99253.01
2019-03-24T22:55:44.167Z,99243.95
2019-03-24T22:58:11.150Z,99239.11
2019-03-24T23:00:45.834Z,99224.44
2019-03-24T23:03:12.786Z,99233.44
2019-03-24T23:05:39.816Z,99232.80
2019-03-24T23:08:06.755Z,99230.08
2019-03-24T23:10:33.598Z,99217.72
2019-03-24T23:13:00.457Z,99216.91
2019-03-24T23:15:27.344Z,99220.20
2019-03-24T23:17:54.302Z,99219.43
2019-03-24T23:20:21.164Z,99205.99
2019-03-24T23:22:48.238Z,99205.61
2019-03-24T23:25:15.245Z,99211.28
2019-03-24T23:27:42.124Z,99203.34
2019-03-24T23:30:09.025Z,99208.00
2019-03-24T23:32:36.040Z,99210.13
2019-03-24T23:35:05.046Z,99213.37
2019-03-24T23:37:31.995Z,99212.17
2019-03-24T23:39:58.847Z,99214.34
2019-03-24T23:42:25.659Z,99210.63
2019-03-24T23:44:52.612Z,99209.28
2019-03-24T23:47:19.584Z,99206.75
2019-03-24T23:49:46.476Z,99183.95
2019-03-24T23:52:13.501Z,99188.75
2019-03-24T23:54:42.308Z,99184.33
2019-03-24T23:57:09.122Z,99171.97
2019-03-24T23:59:36.003Z,99183.44
